createdAt,value
2023-02-23T00:00:29.740Z,8.80
2023-02-23T00:03:01.405Z,8.70
2023-02-23T00:05:33.163Z,8.60
2023-02-23T00:08:02.657Z,8.60
2023-02-23T00:10:31.749Z,8.50
2023-02-23T00:13:01.112Z,8.60
2023-02-23T00:15:30.283Z,8.60
2023-02-23T00:17:59.673Z,8.50
2023-02-23T00:20:28.981Z,8.50
2023-02-23T00:22:59.353Z,8.50
2023-02-23T00:25:31.237Z,8.40
2023-02-23T00:27:59.842Z,8.40
2023-02-23T00:30:28.545Z,8.40
2023-02-23T00:33:02.201Z,8.40
2023-02-23T00:35:30.896Z,8.40
2023-02-23T00:38:01.097Z,8.40
2023-02-23T00:40:30.201Z,8.40
2023-02-23T00:42:58.727Z,8.40
2023-02-23T00:45:28.668Z,8.40
2023-02-23T00:47:57.269Z,8.40
2023-02-23T00:50:25.789Z,8.40
2023-02-23T00:52:54.397Z,8.40
2023-02-23T00:55:27.038Z,8.40
2023-02-23T00:57:55.916Z,8.30
2023-02-23T01:00:26.483Z,8.30
2023-02-23T01:02:56.499Z,8.30
2023-02-23T01:05:25.182Z,8.30
2023-02-23T01:07:58.096Z,8.20
2023-02-23T01:10:28.233Z,8.20
2023-02-23T01:12:56.876Z,8.20
2023-02-23T01:15:25.533Z,8.20
2023-02-23T01:17:54.375Z,8.20
2023-02-23T01:20:23.073Z,8.20
2023-02-23T01:22:52.838Z,8.20
2023-02-23T01:25:21.933Z,8.20
2023-02-23T01:27:52.050Z,8.20
2023-02-23T01:30:20.728Z,8.20
2023-02-23T01:32:51.049Z,8.20
2023-02-23T01:35:20.159Z,8.20
2023-02-23T01:37:51.344Z,8.20
2023-02-23T01:40:29.213Z,8.20
2023-02-23T01:43:03.143Z,8.20
2023-02-23T01:45:35.924Z,8.20
2023-02-23T01:48:08.265Z,8.20
2023-02-23T01:50:46.403Z,8.20
2023-02-23T01:53:15.577Z,8.20
2023-02-23T01:55:45.214Z,8.20
2023-02-23T01:58:20.010Z,8.20
2023-02-23T02:00:51.516Z,8.20
2023-02-23T02:03:28.016Z,8.20
2023-02-23T02:05:58.407Z,8.20
2023-02-23T02:08:28.670Z,8.20
2023-02-23T02:10:57.907Z,8.10
2023-02-23T02:13:31.548Z,8.10
2023-02-23T02:16:18.822Z,8.00
2023-02-23T02:19:18.826Z,8.00
2023-02-23T02:22:27.359Z,8.00
2023-02-23T02:25:31.738Z,7.90
2023-02-23T02:28:35.561Z,7.80
2023-02-23T02:31:46.826Z,7.80
2023-02-23T02:34:49.405Z,7.80
2023-02-23T02:37:33.342Z,7.70
2023-02-23T02:40:16.819Z,7.70
2023-02-23T02:42:56.481Z,7.70
2023-02-23T02:45:32.344Z,7.70
2023-02-23T02:48:07.778Z,7.60
2023-02-23T02:50:46.411Z,7.60
2023-02-23T02:53:21.946Z,7.60
2023-02-23T02:55:51.806Z,7.60
2023-02-23T02:58:21.056Z,7.50
2023-02-23T03:01:08.932Z,7.50
2023-02-23T03:04:12.529Z,7.50
2023-02-23T03:07:09.272Z,7.40
2023-02-23T03:10:05.966Z,7.40
2023-02-23T03:12:58.453Z,7.40
2023-02-23T03:15:56.698Z,7.30
2023-02-23T03:18:59.051Z,7.30
2023-02-23T03:21:50.865Z,7.30
2023-02-23T03:24:46.801Z,7.20
2023-02-23T03:27:41.547Z,7.20
2023-02-23T03:30:34.128Z,7.10
2023-02-23T03:33:28.190Z,7.10
2023-02-23T03:36:21.678Z,7.00
2023-02-23T03:39:12.672Z,6.90
2023-02-23T03:42:01.450Z,6.90
2023-02-23T03:44:52.052Z,6.80
2023-02-23T03:47:42.105Z,6.80
2023-02-23T03:50:34.129Z,6.70
2023-02-23T03:53:22.621Z,6.70
2023-02-23T03:56:13.721Z,6.70
2023-02-23T03:59:05.416Z,6.70
2023-02-23T04:01:53.751Z,6.70
2023-02-23T04:04:42.482Z,6.70
2023-02-23T04:07:30.233Z,6.70
2023-02-23T04:10:16.367Z,6.60
2023-02-23T04:13:08.960Z,6.60
2023-02-23T04:15:38.592Z,6.60
2023-02-23T04:18:13.315Z,6.50
2023-02-23T04:20:41.975Z,6.50
2023-02-23T04:23:10.769Z,6.50
2023-02-23T04:25:39.445Z,6.40
2023-02-23T04:28:11.447Z,6.40
2023-02-23T04:30:41.112Z,6.40
2023-02-23T04:33:11.643Z,6.30
2023-02-23T04:35:40.753Z,6.40
2023-02-23T04:38:09.765Z,6.30
2023-02-23T04:40:38.296Z,6.30
2023-02-23T04:43:06.831Z,6.40
2023-02-23T04:45:35.375Z,6.40
2023-02-23T04:48:04.246Z,6.30
2023-02-23T04:50:34.684Z,6.30
2023-02-23T04:53:03.449Z,6.30
2023-02-23T04:55:32.935Z,6.20
2023-02-23T04:58:03.278Z,6.20
2023-02-23T05:00:34.303Z,6.20
2023-02-23T05:03:03.127Z,6.10
2023-02-23T05:05:33.570Z,6.10
2023-02-23T05:08:02.451Z,6.10
2023-02-23T05:10:31.125Z,6.00
2023-02-23T05:13:01.304Z,6.00
2023-02-23T05:15:30.427Z,6.00
2023-02-23T05:18:04.728Z,6.00
2023-02-23T05:20:34.815Z,6.00
2023-02-23T05:23:03.528Z,6.10
2023-02-23T05:25:32.221Z,6.10
2023-02-23T05:28:01.314Z,6.10
2023-02-23T05:30:30.085Z,6.10
2023-02-23T05:32:58.976Z,6.10
2023-02-23T05:35:27.891Z,6.10
2023-02-23T05:37:58.188Z,6.10
2023-02-23T05:40:26.865Z,6.10
2023-02-23T05:43:00.520Z,6.10
2023-02-23T05:45:29.333Z,6.10
2023-02-23T05:47:59.397Z,6.20
2023-02-23T05:50:28.090Z,6.10
2023-02-23T05:52:58.215Z,6.20
2023-02-23T05:55:27.225Z,6.20
2023-02-23T05:57:56.137Z,6.20
2023-02-23T06:00:25.041Z,6.20
2023-02-23T06:02:54.166Z,6.20
2023-02-23T06:05:23.023Z,6.30
2023-02-23T06:07:51.749Z,6.30
2023-02-23T06:10:21.990Z,6.30
2023-02-23T06:12:50.579Z,6.30
2023-02-23T06:15:19.680Z,6.30
2023-02-23T06:17:51.706Z,6.40
2023-02-23T06:20:20.506Z,6.30
2023-02-23T06:22:49.252Z,6.40
2023-02-23T06:25:18.125Z,6.40
2023-02-23T06:27:52.009Z,6.40
2023-02-23T06:30:24.550Z,6.40
2023-02-23T06:32:53.369Z,6.40
2023-02-23T06:35:24.300Z,6.50
2023-02-23T06:37:53.013Z,6.50
2023-02-23T06:40:22.405Z,6.50
2023-02-23T06:42:53.052Z,6.50
2023-02-23T06:45:21.782Z,6.60
2023-02-23T06:48:10.682Z,6.60
2023-02-23T06:50:39.381Z,6.70
2023-02-23T06:53:08.577Z,6.80
2023-02-23T06:55:37.155Z,6.90
2023-02-23T06:58:08.395Z,6.90
2023-02-23T07:00:37.556Z,7.00
2023-02-23T07:03:07.024Z,7.10
2023-02-23T07:05:35.589Z,7.10
2023-02-23T07:08:04.545Z,7.20
2023-02-23T07:10:33.469Z,7.20
2023-02-23T07:13:02.318Z,7.30
2023-02-23T07:15:32.472Z,7.40
2023-02-23T07:18:01.117Z,7.40
2023-02-23T07:20:29.871Z,7.50
2023-02-23T07:22:58.981Z,7.50
2023-02-23T07:25:27.753Z,7.50
2023-02-23T07:27:56.372Z,7.50
2023-02-23T07:30:25.277Z,7.60
2023-02-23T07:32:55.969Z,7.70
2023-02-23T07:35:24.922Z,7.80
2023-02-23T07:37:54.653Z,7.90
2023-02-23T07:40:25.646Z,8.00
2023-02-23T07:42:55.520Z,8.00
2023-02-23T07:45:25.320Z,8.10
2023-02-23T07:47:55.557Z,8.20
2023-02-23T07:50:24.221Z,8.30
2023-02-23T07:52:53.421Z,8.40
2023-02-23T07:55:22.542Z,8.50
2023-02-23T07:57:51.229Z,8.60
2023-02-23T08:00:20.696Z,8.70
2023-02-23T08:02:49.419Z,8.70
2023-02-23T08:05:19.580Z,8.80
2023-02-23T08:07:48.269Z,8.90
2023-02-23T08:10:17.574Z,9.00
2023-02-23T08:12:46.448Z,9.00
2023-02-23T08:15:15.569Z,9.10
2023-02-23T08:17:44.371Z,9.10
2023-02-23T08:20:14.095Z,9.10
2023-02-23T08:22:49.749Z,9.20
2023-02-23T08:25:19.923Z,9.30
2023-02-23T08:27:48.870Z,9.30
2023-02-23T08:30:17.667Z,9.40
2023-02-23T08:32:47.106Z,9.50
2023-02-23T08:35:16.259Z,9.50
2023-02-23T08:37:46.755Z,9.60
2023-02-23T08:40:18.374Z,9.70
2023-02-23T08:42:48.996Z,9.80
2023-02-23T08:45:17.843Z,10.00
2023-02-23T08:47:46.595Z,10.10
2023-02-23T08:50:16.300Z,10.30
2023-02-23T08:52:49.715Z,10.40
2023-02-23T08:55:18.742Z,10.50
2023-02-23T08:57:47.663Z,10.60
2023-02-23T09:00:17.449Z,10.70
2023-02-23T09:02:48.631Z,10.70
2023-02-23T09:05:17.768Z,10.80
2023-02-23T09:07:49.334Z,10.80
2023-02-23T09:10:24.965Z,10.80
2023-02-23T09:12:53.752Z,10.90
2023-02-23T09:15:22.647Z,10.90
2023-02-23T09:17:51.324Z,10.80
2023-02-23T09:20:20.968Z,10.90
2023-02-23T09:22:51.321Z,10.80
2023-02-23T09:25:23.119Z,10.80
2023-02-23T09:27:57.262Z,10.80
2023-02-23T09:30:29.687Z,10.80
2023-02-23T09:32:59.148Z,10.80
2023-02-23T09:35:28.161Z,10.70
2023-02-23T09:37:58.858Z,10.70
2023-02-23T09:40:30.539Z,10.60
2023-02-23T09:43:06.919Z,10.60
2023-02-23T09:45:42.479Z,10.60
2023-02-23T09:48:16.706Z,10.50
2023-02-23T09:50:49.134Z,10.50
2023-02-23T09:53:33.937Z,10.50
2023-02-23T09:56:07.093Z,10.50
2023-02-23T09:58:36.884Z,10.50
2023-02-23T10:01:46.480Z,10.50
2023-02-23T10:04:22.386Z,10.50
2023-02-23T10:06:56.254Z,10.60
2023-02-23T10:09:37.458Z,10.70
2023-02-23T10:12:11.486Z,10.70
2023-02-23T10:15:00.091Z,10.80
2023-02-23T10:17:43.515Z,10.90
2023-02-23T10:20:23.484Z,11.00
2023-02-23T10:22:54.094Z,11.10
2023-02-23T10:25:27.504Z,11.10
2023-02-23T10:27:59.180Z,11.10
2023-02-23T10:30:30.960Z,11.10
2023-02-23T10:33:06.959Z,11.20
2023-02-23T10:35:35.558Z,11.20
2023-02-23T10:38:04.426Z,11.30
2023-02-23T10:40:38.833Z,11.40
2023-02-23T10:43:07.467Z,11.50
2023-02-23T10:45:42.707Z,11.60
2023-02-23T10:48:18.961Z,11.70
2023-02-23T10:50:50.441Z,11.70
2023-02-23T10:53:36.293Z,11.80
2023-02-23T10:56:13.927Z,11.90
2023-02-23T10:58:48.790Z,12.00
2023-02-23T11:01:32.864Z,12.00
2023-02-23T11:04:14.878Z,12.00
2023-02-23T11:06:44.586Z,12.10
2023-02-23T11:09:41.194Z,12.20
2023-02-23T11:12:29.701Z,12.40
2023-02-23T11:15:00.020Z,12.40
2023-02-23T11:17:33.064Z,12.50
2023-02-23T11:20:06.221Z,12.50
2023-02-23T11:22:37.791Z,12.50
2023-02-23T11:25:27.069Z,12.50
2023-02-23T11:27:58.296Z,12.60
2023-02-23T11:30:43.057Z,12.60
2023-02-23T11:33:40.596Z,12.70
2023-02-23T11:36:18.982Z,12.80
2023-02-23T11:38:48.560Z,12.90
2023-02-23T11:41:24.216Z,13.00
2023-02-23T11:43:59.362Z,13.00
2023-02-23T11:46:30.125Z,13.00
2023-02-23T11:49:01.422Z,12.90
2023-02-23T11:51:33.011Z,12.90
2023-02-23T11:54:06.001Z,12.70
2023-02-23T11:56:36.716Z,12.60
2023-02-23T11:59:16.916Z,12.50
2023-02-23T12:01:51.548Z,12.50
2023-02-23T12:04:30.593Z,12.50
2023-02-23T12:07:37.550Z,12.60
2023-02-23T12:10:15.311Z,12.80
2023-02-23T12:12:54.874Z,13.00
2023-02-23T12:15:36.753Z,13.10
2023-02-23T12:18:16.627Z,13.20
2023-02-23T12:20:48.738Z,13.30
2023-02-23T12:23:23.045Z,13.30
2023-02-23T12:25:56.183Z,13.40
2023-02-23T12:28:32.505Z,13.40
2023-02-23T12:31:12.647Z,13.30
2023-02-23T12:33:44.169Z,13.30
2023-02-23T12:36:22.347Z,13.30
2023-02-23T12:38:56.311Z,13.30
2023-02-23T12:41:33.374Z,13.30
2023-02-23T12:44:07.682Z,13.30
2023-02-23T12:46:43.694Z,13.30
2023-02-23T12:49:17.860Z,13.30
2023-02-23T12:51:51.722Z,13.30
2023-02-23T12:54:20.733Z,13.20
2023-02-23T12:56:59.598Z,13.20
2023-02-23T12:59:50.251Z,13.10
2023-02-23T13:02:27.288Z,13.10
2023-02-23T13:05:24.693Z,13.20
2023-02-23T13:08:13.057Z,13.30
2023-02-23T13:10:51.793Z,13.40
2023-02-23T13:13:32.749Z,13.60
2023-02-23T13:16:10.885Z,13.70
2023-02-23T13:18:45.788Z,13.80
2023-02-23T13:21:22.653Z,13.80
2023-02-23T13:24:01.499Z,13.80
2023-02-23T13:26:38.960Z,13.80
2023-02-23T13:29:11.818Z,13.80
2023-02-23T13:31:42.715Z,13.60
2023-02-23T13:34:18.227Z,13.50
2023-02-23T13:36:47.150Z,13.40
2023-02-23T13:39:36.763Z,13.30
2023-02-23T13:42:17.378Z,13.20
2023-02-23T13:44:51.519Z,13.10
2023-02-23T13:47:34.223Z,13.10
2023-02-23T13:50:16.527Z,12.90
2023-02-23T13:52:47.776Z,12.90
2023-02-23T13:55:49.601Z,12.80
2023-02-23T13:58:25.460Z,12.70
2023-02-23T14:01:13.230Z,12.60
2023-02-23T14:03:48.422Z,12.50
2023-02-23T14:06:21.079Z,12.50
2023-02-23T14:08:57.125Z,12.40
2023-02-23T14:11:48.334Z,12.30
2023-02-23T14:14:43.530Z,12.20
2023-02-23T14:17:44.325Z,12.20
2023-02-23T14:20:29.625Z,12.20
2023-02-23T14:23:50.967Z,12.30
2023-02-23T14:26:39.126Z,12.30
2023-02-23T14:29:29.400Z,12.30
2023-02-23T14:32:04.918Z,12.30
2023-02-23T14:34:52.158Z,12.20
2023-02-23T14:37:27.214Z,12.20
2023-02-23T14:40:02.692Z,12.20
2023-02-23T14:42:31.464Z,12.20
2023-02-23T14:45:06.412Z,12.20
2023-02-23T14:47:46.287Z,12.20
2023-02-23T14:50:24.596Z,12.20
2023-02-23T14:52:56.289Z,12.20
2023-02-23T14:55:29.425Z,12.30
2023-02-23T14:57:59.194Z,12.40
2023-02-23T15:00:32.672Z,12.50
2023-02-23T15:03:03.331Z,12.70
2023-02-23T15:05:34.235Z,12.80
2023-02-23T15:08:06.432Z,12.80
2023-02-23T15:10:39.708Z,12.80
2023-02-23T15:13:13.545Z,12.70
2023-02-23T15:15:46.169Z,12.60
2023-02-23T15:18:22.915Z,12.50
2023-02-23T15:20:52.074Z,12.40
2023-02-23T15:23:21.703Z,12.30
2023-02-23T15:25:53.027Z,12.10
2023-02-23T15:28:25.287Z,12.00
2023-02-23T15:30:55.600Z,11.90
2023-02-23T15:33:28.426Z,11.80
2023-02-23T15:36:07.634Z,11.80
2023-02-23T15:38:43.793Z,11.60
2023-02-23T15:41:21.644Z,11.50
2023-02-23T15:43:50.492Z,11.50
2023-02-23T15:46:26.115Z,11.50
2023-02-23T15:49:00.938Z,11.50
2023-02-23T15:51:37.296Z,11.50
2023-02-23T15:54:13.868Z,11.40
2023-02-23T15:56:46.867Z,11.50
2023-02-23T15:59:23.938Z,11.40
2023-02-23T16:01:56.022Z,11.40
2023-02-23T16:04:32.704Z,11.40
2023-02-23T16:07:19.095Z,11.40
2023-02-23T16:09:55.856Z,11.40
2023-02-23T16:12:32.142Z,11.30
2023-02-23T16:15:03.712Z,11.30
2023-02-23T16:18:25.719Z,11.20
2023-02-23T16:20:56.488Z,11.20
2023-02-23T16:23:34.097Z,11.10
2023-02-23T16:26:10.820Z,11.00
2023-02-23T16:28:45.943Z,11.00
2023-02-23T16:32:07.824Z,10.90
2023-02-23T16:34:45.856Z,10.80
2023-02-23T16:37:18.251Z,10.80
2023-02-23T16:39:48.224Z,10.70
2023-02-23T16:42:27.402Z,10.70
2023-02-23T16:44:58.234Z,10.60
2023-02-23T16:47:36.714Z,10.60
2023-02-23T16:50:20.036Z,10.50
2023-02-23T16:52:53.093Z,10.50
2023-02-23T16:55:26.247Z,10.40
2023-02-23T16:57:58.046Z,10.40
2023-02-23T17:00:30.373Z,10.40
2023-02-23T17:03:00.767Z,10.40
2023-02-23T17:05:30.457Z,10.30
2023-02-23T17:07:59.813Z,10.40
2023-02-23T17:10:32.303Z,10.40
2023-02-23T17:13:05.050Z,10.30
2023-02-23T17:15:37.174Z,10.30
2023-02-23T17:18:06.269Z,10.30
2023-02-23T17:20:35.577Z,10.30
2023-02-23T17:23:04.624Z,10.30
2023-02-23T17:25:33.684Z,10.30
2023-02-23T17:28:03.169Z,10.30
2023-02-23T17:30:32.626Z,10.30
2023-02-23T17:33:03.598Z,10.30
2023-02-23T17:35:33.594Z,10.30
2023-02-23T17:38:02.712Z,10.30
2023-02-23T17:40:36.528Z,10.30
2023-02-23T17:43:06.705Z,10.30
2023-02-23T17:45:35.536Z,10.20
2023-02-23T17:48:05.848Z,10.20
2023-02-23T17:50:34.544Z,10.10
2023-02-23T17:53:03.097Z,10.10
2023-02-23T17:55:34.290Z,10.10
2023-02-23T17:58:02.911Z,10.00
2023-02-23T18:00:37.816Z,10.00
2023-02-23T18:07:17.983Z,9.90
2023-02-23T18:09:50.229Z,9.80
2023-02-23T18:12:19.551Z,9.80
2023-02-23T18:14:48.248Z,9.70
2023-02-23T18:17:16.973Z,9.60
2023-02-23T18:19:47.641Z,9.60
2023-02-23T18:22:18.403Z,9.60
2023-02-23T18:24:46.958Z,9.50
2023-02-23T18:27:16.364Z,9.50
2023-02-23T18:29:45.040Z,9.50
2023-02-23T18:32:13.913Z,9.40
2023-02-23T18:34:42.732Z,9.40
2023-02-23T18:37:11.550Z,9.30
2023-02-23T18:39:41.620Z,9.20
2023-02-23T18:42:10.322Z,9.20
2023-02-23T18:44:38.986Z,9.20
2023-02-23T18:47:07.713Z,9.10
2023-02-23T18:49:37.009Z,9.10
2023-02-23T18:52:09.248Z,9.10
2023-02-23T18:54:38.513Z,9.00
2023-02-23T18:57:08.696Z,9.00
2023-02-23T18:59:37.458Z,9.00
2023-02-23T19:02:06.273Z,9.00
2023-02-23T19:04:36.753Z,9.00
2023-02-23T19:07:05.595Z,9.00
2023-02-23T19:09:34.435Z,9.00
2023-02-23T19:12:03.221Z,9.00
2023-02-23T19:14:48.864Z,9.00
2023-02-23T19:17:18.380Z,9.10
2023-02-23T19:19:47.049Z,9.10
2023-02-23T19:22:15.871Z,9.00
2023-02-23T19:24:44.415Z,9.10
2023-02-23T19:27:12.984Z,9.00
2023-02-23T19:29:43.246Z,9.00
2023-02-23T19:32:12.900Z,9.10
2023-02-23T19:34:41.452Z,9.10
2023-02-23T19:37:10.851Z,9.10
2023-02-23T19:39:39.521Z,9.10
2023-02-23T19:42:11.071Z,9.10
2023-02-23T19:44:39.835Z,9.00
2023-02-23T19:47:09.984Z,9.00
2023-02-23T19:49:38.546Z,9.00
2023-02-23T19:52:07.219Z,9.00
2023-02-23T19:54:38.012Z,9.00
2023-02-23T19:57:06.701Z,9.00
2023-02-23T19:59:35.334Z,9.00
2023-02-23T20:02:04.152Z,8.90
2023-02-23T20:04:34.627Z,8.90
2023-02-23T20:07:03.459Z,8.90
2023-02-23T20:09:38.225Z,8.90
2023-02-23T20:12:07.743Z,8.90
2023-02-23T20:14:38.206Z,8.90
2023-02-23T20:17:09.101Z,8.80
2023-02-23T20:19:39.448Z,8.80
2023-02-23T20:22:08.941Z,8.80
2023-02-23T20:24:37.775Z,8.70
2023-02-23T20:27:06.294Z,8.70
2023-02-23T20:33:44.952Z,8.60
2023-02-23T20:36:15.015Z,8.60
2023-02-23T20:38:43.566Z,8.50
2023-02-23T20:41:14.476Z,8.60
2023-02-23T20:43:44.031Z,8.60
2023-02-23T20:46:14.323Z,8.60
2023-02-23T20:48:44.001Z,8.60
2023-02-23T20:51:18.802Z,8.60
2023-02-23T20:53:48.977Z,8.60
2023-02-23T20:56:23.340Z,8.50
2023-02-23T20:58:54.455Z,8.60
2023-02-23T21:01:26.363Z,8.60
2023-02-23T21:03:56.172Z,8.60
2023-02-23T21:06:27.089Z,8.60
2023-02-23T21:09:02.767Z,8.60
2023-02-23T21:11:33.217Z,8.60
2023-02-23T21:14:02.215Z,8.60
2023-02-23T21:16:32.485Z,8.60
2023-02-23T21:19:06.453Z,8.50
2023-02-23T21:21:42.060Z,8.50
2023-02-23T21:24:10.768Z,8.50
2023-02-23T21:26:39.386Z,8.50
2023-02-23T21:29:15.038Z,8.40
2023-02-23T21:31:44.781Z,8.40
2023-02-23T21:35:04.684Z,8.40
2023-02-23T21:37:34.637Z,8.40
2023-02-23T21:40:04.709Z,8.40
2023-02-23T21:42:33.363Z,8.40
2023-02-23T21:45:04.123Z,8.40
2023-02-23T21:47:36.142Z,8.40
2023-02-23T21:50:05.526Z,8.40
2023-02-23T21:52:36.423Z,8.40
2023-02-23T21:55:07.907Z,8.40
2023-02-23T21:57:41.665Z,8.40
2023-02-23T22:00:12.845Z,8.40
2023-02-23T22:02:42.121Z,8.40
2023-02-23T22:05:11.340Z,8.50
2023-02-23T22:07:41.947Z,8.50
2023-02-23T22:10:11.321Z,8.50
2023-02-23T22:12:39.963Z,8.50
2023-02-23T22:15:10.543Z,8.60
2023-02-23T22:17:39.986Z,8.60
2023-02-23T22:20:10.131Z,8.60
2023-02-23T22:22:40.338Z,8.70
2023-02-23T22:25:09.798Z,8.70
2023-02-23T22:27:38.489Z,8.70
2023-02-23T22:30:09.558Z,8.80
2023-02-23T22:32:38.312Z,8.80
2023-02-23T22:35:07.965Z,8.80
2023-02-23T22:37:39.302Z,8.80
2023-02-23T22:40:15.232Z,8.80
2023-02-23T22:42:48.414Z,8.80
2023-02-23T22:45:18.114Z,8.80
2023-02-23T22:47:46.897Z,8.80
2023-02-23T22:50:18.990Z,8.80
2023-02-23T22:52:47.933Z,8.80
2023-02-23T22:55:19.380Z,8.80
2023-02-23T22:57:48.916Z,8.80
2023-02-23T23:00:20.592Z,8.80
2023-02-23T23:02:49.633Z,8.80
2023-02-23T23:05:19.178Z,8.80
2023-02-23T23:07:48.084Z,8.80
2023-02-23T23:10:19.477Z,8.80
2023-02-23T23:12:48.925Z,8.80
2023-02-23T23:15:19.501Z,8.80
2023-02-23T23:17:49.446Z,8.70
2023-02-23T23:20:25.692Z,8.70
2023-02-23T23:22:57.253Z,8.70
2023-02-23T23:25:29.681Z,8.60
2023-02-23T23:27:58.828Z,8.60
2023-02-23T23:30:30.063Z,8.60
2023-02-23T23:33:00.284Z,8.50
2023-02-23T23:35:29.150Z,8.60
2023-02-23T23:38:01.728Z,8.60
2023-02-23T23:40:35.821Z,8.60
2023-02-23T23:43:07.682Z,8.60
2023-02-23T23:45:40.671Z,8.60
2023-02-23T23:48:09.646Z,8.60
2023-02-23T23:50:39.745Z,8.60
2023-02-23T23:53:08.396Z,8.60
2023-02-23T23:55:38.506Z,8.60
2023-02-23T23:58:07.103Z,8.60
